sensor_id;sensor_type;location;lat;lon;timestamp;P1;durP1;ratioP1;P2;durP2;ratioP2
23543;SDS011;11950;51.230;4.012;2024-03-06T00:01:48;23.50;;;18.67;;
23543;SDS011;11950;51.230;4.012;2024-03-06T00:04:15;27.95;;;19.77;;
23543;SDS011;11950;51.230;4.012;2024-03-06T00:06:41;26.90;;;19.27;;
23543;SDS011;11950;51.230;4.012;2024-03-06T00:09:07;27.95;;;20.17;;
23543;SDS011;11950;51.230;4.012;2024-03-06T00:11:34;27.40;;;18.42;;
23543;SDS011;11950;51.230;4.012;2024-03-06T00:14:04;24.90;;;19.15;;
23543;SDS011;11950;51.230;4.012;2024-03-06T00:16:31;30.95;;;19.73;;
23543;SDS011;11950;51.230;4.012;2024-03-06T00:18:57;29.08;;;19.38;;
23543;SDS011;11950;51.230;4.012;2024-03-06T00:21:24;27.67;;;19.15;;
23543;SDS011;11950;51.230;4.012;2024-03-06T00:23:50;25.20;;;18.20;;
23543;SDS011;11950;51.230;4.012;2024-03-06T00:26:16;28.30;;;19.48;;
23543;SDS011;11950;51.230;4.012;2024-03-06T00:28:42;27.55;;;18.67;;
23543;SDS011;11950;51.230;4.012;2024-03-06T00:31:09;24.13;;;17.95;;
23543;SDS011;11950;51.230;4.012;2024-03-06T00:33:35;26.33;;;18.45;;
23543;SDS011;11950;51.230;4.012;2024-03-06T00:36:01;22.83;;;17.05;;
23543;SDS011;11950;51.230;4.012;2024-03-06T00:38:28;22.10;;;16.65;;
23543;SDS011;11950;51.230;4.012;2024-03-06T00:40:54;19.95;;;16.85;;
23543;SDS011;11950;51.230;4.012;2024-03-06T00:43:23;23.63;;;17.15;;
23543;SDS011;11950;51.230;4.012;2024-03-06T00:45:49;25.27;;;16.40;;
23543;SDS011;11950;51.230;4.012;2024-03-06T00:48:16;23.75;;;16.42;;
23543;SDS011;11950;51.230;4.012;2024-03-06T00:50:42;21.75;;;16.77;;
23543;SDS011;11950;51.230;4.012;2024-03-06T00:53:08;20.98;;;16.38;;
23543;SDS011;11950;51.230;4.012;2024-03-06T00:55:34;19.58;;;15.32;;
23543;SDS011;11950;51.230;4.012;2024-03-06T00:58:00;21.60;;;16.20;;
23543;SDS011;11950;51.230;4.012;2024-03-06T01:00:27;21.05;;;15.27;;
23543;SDS011;11950;51.230;4.012;2024-03-06T01:02:53;19.48;;;15.43;;
23543;SDS011;11950;51.230;4.012;2024-03-06T01:05:19;19.67;;;15.50;;
23543;SDS011;11950;51.230;4.012;2024-03-06T01:07:46;20.30;;;15.30;;
23543;SDS011;11950;51.230;4.012;2024-03-06T01:10:12;20.05;;;15.25;;
23543;SDS011;11950;51.230;4.012;2024-03-06T01:12:39;18.05;;;13.70;;
23543;SDS011;11950;51.230;4.012;2024-03-06T01:15:05;21.08;;;15.50;;
23543;SDS011;11950;51.230;4.012;2024-03-06T01:17:33;20.50;;;14.10;;
23543;SDS011;11950;51.230;4.012;2024-03-06T01:20:00;17.25;;;13.80;;
23543;SDS011;11950;51.230;4.012;2024-03-06T01:22:26;18.50;;;13.93;;
23543;SDS011;11950;51.230;4.012;2024-03-06T01:24:53;19.63;;;14.38;;
23543;SDS011;11950;51.230;4.012;2024-03-06T01:27:19;17.52;;;13.32;;
23543;SDS011;11950;51.230;4.012;2024-03-06T01:29:45;18.77;;;14.15;;
23543;SDS011;11950;51.230;4.012;2024-03-06T01:32:12;18.15;;;13.40;;
23543;SDS011;11950;51.230;4.012;2024-03-06T01:34:38;17.73;;;13.05;;
23543;SDS011;11950;51.230;4.012;2024-03-06T01:37:05;18.55;;;13.55;;
23543;SDS011;11950;51.230;4.012;2024-03-06T01:39:31;16.15;;;13.55;;
23543;SDS011;11950;51.230;4.012;2024-03-06T01:41:57;18.25;;;12.88;;
23543;SDS011;11950;51.230;4.012;2024-03-06T01:44:23;14.52;;;12.13;;
23543;SDS011;11950;51.230;4.012;2024-03-06T01:46:50;14.75;;;12.02;;
23543;SDS011;11950;51.230;4.012;2024-03-06T01:49:16;15.63;;;12.65;;
23543;SDS011;11950;51.230;4.012;2024-03-06T01:51:42;15.15;;;12.02;;
23543;SDS011;11950;51.230;4.012;2024-03-06T01:54:14;15.77;;;13.00;;
23543;SDS011;11950;51.230;4.012;2024-03-06T01:56:43;17.15;;;13.20;;
23543;SDS011;11950;51.230;4.012;2024-03-06T01:59:15;15.65;;;12.85;;
23543;SDS011;11950;51.230;4.012;2024-03-06T02:01:42;17.67;;;12.73;;
23543;SDS011;11950;51.230;4.012;2024-03-06T02:04:10;16.27;;;12.63;;
23543;SDS011;11950;51.230;4.012;2024-03-06T02:06:38;18.05;;;13.90;;
23543;SDS011;11950;51.230;4.012;2024-03-06T02:09:05;17.05;;;12.98;;
23543;SDS011;11950;51.230;4.012;2024-03-06T02:11:33;17.40;;;13.68;;
23543;SDS011;11950;51.230;4.012;2024-03-06T02:13:59;16.13;;;13.05;;
23543;SDS011;11950;51.230;4.012;2024-03-06T02:16:25;17.88;;;12.80;;
23543;SDS011;11950;51.230;4.012;2024-03-06T02:18:52;16.17;;;12.40;;
23543;SDS011;11950;51.230;4.012;2024-03-06T02:21:25;16.60;;;12.75;;
23543;SDS011;11950;51.230;4.012;2024-03-06T02:23:51;13.93;;;12.00;;
23543;SDS011;11950;51.230;4.012;2024-03-06T02:26:18;15.73;;;12.60;;
23543;SDS011;11950;51.230;4.012;2024-03-06T02:28:48;16.38;;;12.02;;
23543;SDS011;11950;51.230;4.012;2024-03-06T02:31:16;13.20;;;11.57;;
23543;SDS011;11950;51.230;4.012;2024-03-06T02:33:45;15.35;;;11.90;;
23543;SDS011;11950;51.230;4.012;2024-03-06T02:36:13;18.15;;;12.90;;
23543;SDS011;11950;51.230;4.012;2024-03-06T02:38:41;16.42;;;12.77;;
23543;SDS011;11950;51.230;4.012;2024-03-06T02:41:07;16.52;;;12.85;;
23543;SDS011;11950;51.230;4.012;2024-03-06T02:43:33;14.88;;;11.98;;
23543;SDS011;11950;51.230;4.012;2024-03-06T02:46:00;16.55;;;12.60;;
23543;SDS011;11950;51.230;4.012;2024-03-06T02:48:26;15.15;;;12.15;;
23543;SDS011;11950;51.230;4.012;2024-03-06T02:50:52;16.15;;;12.60;;
23543;SDS011;11950;51.230;4.012;2024-03-06T02:53:18;18.38;;;12.38;;
23543;SDS011;11950;51.230;4.012;2024-03-06T02:55:45;16.48;;;13.15;;
23543;SDS011;11950;51.230;4.012;2024-03-06T02:58:11;18.02;;;11.73;;
23543;SDS011;11950;51.230;4.012;2024-03-06T03:00:39;17.00;;;12.70;;
23543;SDS011;11950;51.230;4.012;2024-03-06T03:03:06;16.42;;;12.30;;
23543;SDS011;11950;51.230;4.012;2024-03-06T03:05:32;16.00;;;12.80;;
23543;SDS011;11950;51.230;4.012;2024-03-06T03:07:59;15.48;;;11.98;;
23543;SDS011;11950;51.230;4.012;2024-03-06T03:10:25;17.60;;;13.05;;
23543;SDS011;11950;51.230;4.012;2024-03-06T03:12:51;14.68;;;11.57;;
23543;SDS011;11950;51.230;4.012;2024-03-06T03:15:18;16.02;;;12.40;;
23543;SDS011;11950;51.230;4.012;2024-03-06T03:17:45;18.35;;;13.07;;
23543;SDS011;11950;51.230;4.012;2024-03-06T03:20:11;19.15;;;12.98;;
23543;SDS011;11950;51.230;4.012;2024-03-06T03:22:38;17.88;;;12.82;;
23543;SDS011;11950;51.230;4.012;2024-03-06T03:25:08;17.10;;;12.20;;
23543;SDS011;11950;51.230;4.012;2024-03-06T03:27:39;16.30;;;12.45;;
23543;SDS011;11950;51.230;4.012;2024-03-06T03:30:14;15.98;;;11.98;;
23543;SDS011;11950;51.230;4.012;2024-03-06T03:32:41;16.67;;;12.35;;
23543;SDS011;11950;51.230;4.012;2024-03-06T03:35:08;15.15;;;11.85;;
23543;SDS011;11950;51.230;4.012;2024-03-06T03:37:34;13.43;;;10.82;;
23543;SDS011;11950;51.230;4.012;2024-03-06T03:40:00;16.92;;;12.50;;
23543;SDS011;11950;51.230;4.012;2024-03-06T03:42:27;14.10;;;11.15;;
23543;SDS011;11950;51.230;4.012;2024-03-06T03:44:53;14.43;;;10.85;;
23543;SDS011;11950;51.230;4.012;2024-03-06T03:47:19;13.98;;;10.55;;
23543;SDS011;11950;51.230;4.012;2024-03-06T03:49:45;13.98;;;10.75;;
23543;SDS011;11950;51.230;4.012;2024-03-06T03:52:12;14.50;;;10.80;;
23543;SDS011;11950;51.230;4.012;2024-03-06T03:54:39;15.57;;;10.45;;
23543;SDS011;11950;51.230;4.012;2024-03-06T03:57:05;12.30;;;10.38;;
23543;SDS011;11950;51.230;4.012;2024-03-06T03:59:34;14.77;;;10.75;;
23543;SDS011;11950;51.230;4.012;2024-03-06T04:02:00;11.68;;;9.90;;
23543;SDS011;11950;51.230;4.012;2024-03-06T04:04:27;11.73;;;10.15;;
23543;SDS011;11950;51.230;4.012;2024-03-06T04:06:54;12.82;;;10.68;;
23543;SDS011;11950;51.230;4.012;2024-03-06T04:09:21;14.60;;;10.63;;
23543;SDS011;11950;51.230;4.012;2024-03-06T04:11:47;14.15;;;10.50;;
23543;SDS011;11950;51.230;4.012;2024-03-06T04:14:13;10.45;;;9.38;;
23543;SDS011;11950;51.230;4.012;2024-03-06T04:16:39;11.95;;;9.82;;
23543;SDS011;11950;51.230;4.012;2024-03-06T04:19:06;11.77;;;9.60;;
23543;SDS011;11950;51.230;4.012;2024-03-06T04:21:32;11.90;;;9.30;;
23543;SDS011;11950;51.230;4.012;2024-03-06T04:23:58;13.27;;;9.55;;
23543;SDS011;11950;51.230;4.012;2024-03-06T04:26:24;12.10;;;9.20;;
23543;SDS011;11950;51.230;4.012;2024-03-06T04:28:50;12.63;;;9.55;;
23543;SDS011;11950;51.230;4.012;2024-03-06T04:31:17;11.68;;;9.18;;
23543;SDS011;11950;51.230;4.012;2024-03-06T04:33:43;12.23;;;8.90;;
23543;SDS011;11950;51.230;4.012;2024-03-06T04:36:09;13.02;;;9.27;;
23543;SDS011;11950;51.230;4.012;2024-03-06T04:38:36;10.13;;;8.50;;
23543;SDS011;11950;51.230;4.012;2024-03-06T04:41:02;9.45;;;7.85;;
23543;SDS011;11950;51.230;4.012;2024-03-06T04:43:30;10.75;;;8.68;;
23543;SDS011;11950;51.230;4.012;2024-03-06T04:45:56;11.43;;;8.65;;
23543;SDS011;11950;51.230;4.012;2024-03-06T04:48:23;11.75;;;8.35;;
23543;SDS011;11950;51.230;4.012;2024-03-06T04:50:49;12.43;;;9.10;;
23543;SDS011;11950;51.230;4.012;2024-03-06T04:53:15;12.35;;;8.88;;
23543;SDS011;11950;51.230;4.012;2024-03-06T04:55:41;10.40;;;8.35;;
23543;SDS011;11950;51.230;4.012;2024-03-06T04:58:08;12.02;;;8.90;;
23543;SDS011;11950;51.230;4.012;2024-03-06T05:00:34;12.82;;;9.30;;
23543;SDS011;11950;51.230;4.012;2024-03-06T05:03:00;12.23;;;9.80;;
23543;SDS011;11950;51.230;4.012;2024-03-06T05:05:26;11.23;;;9.23;;
23543;SDS011;11950;51.230;4.012;2024-03-06T05:07:52;10.32;;;8.77;;
23543;SDS011;11950;51.230;4.012;2024-03-06T05:10:19;11.43;;;9.57;;
23543;SDS011;11950;51.230;4.012;2024-03-06T05:12:45;13.60;;;9.50;;
23543;SDS011;11950;51.230;4.012;2024-03-06T05:15:11;11.77;;;9.45;;
23543;SDS011;11950;51.230;4.012;2024-03-06T05:17:38;10.80;;;9.23;;
23543;SDS011;11950;51.230;4.012;2024-03-06T05:20:04;11.52;;;9.13;;
23543;SDS011;11950;51.230;4.012;2024-03-06T05:22:31;12.05;;;9.63;;
23543;SDS011;11950;51.230;4.012;2024-03-06T05:24:58;10.95;;;9.40;;
23543;SDS011;11950;51.230;4.012;2024-03-06T05:27:27;11.20;;;9.20;;
23543;SDS011;11950;51.230;4.012;2024-03-06T05:29:53;11.15;;;8.95;;
23543;SDS011;11950;51.230;4.012;2024-03-06T05:32:20;11.80;;;8.70;;
23543;SDS011;11950;51.230;4.012;2024-03-06T05:34:46;10.55;;;8.02;;
23543;SDS011;11950;51.230;4.012;2024-03-06T05:37:12;11.82;;;9.32;;
23543;SDS011;11950;51.230;4.012;2024-03-06T05:39:39;12.48;;;9.23;;
23543;SDS011;11950;51.230;4.012;2024-03-06T05:42:06;11.93;;;10.10;;
23543;SDS011;11950;51.230;4.012;2024-03-06T05:44:32;16.63;;;10.13;;
23543;SDS011;11950;51.230;4.012;2024-03-06T05:46:59;12.55;;;10.10;;
23543;SDS011;11950;51.230;4.012;2024-03-06T05:49:27;12.40;;;10.48;;
23543;SDS011;11950;51.230;4.012;2024-03-06T05:51:53;12.73;;;9.80;;
23543;SDS011;11950;51.230;4.012;2024-03-06T05:54:20;12.32;;;9.48;;
23543;SDS011;11950;51.230;4.012;2024-03-06T05:56:50;12.85;;;9.93;;
23543;SDS011;11950;51.230;4.012;2024-03-06T05:59:20;12.30;;;9.85;;
23543;SDS011;11950;51.230;4.012;2024-03-06T06:01:46;13.80;;;10.20;;
23543;SDS011;11950;51.230;4.012;2024-03-06T06:04:13;12.13;;;9.52;;
23543;SDS011;11950;51.230;4.012;2024-03-06T06:06:39;14.60;;;10.13;;
23543;SDS011;11950;51.230;4.012;2024-03-06T06:09:06;12.95;;;9.30;;
23543;SDS011;11950;51.230;4.012;2024-03-06T06:11:32;10.55;;;8.70;;
23543;SDS011;11950;51.230;4.012;2024-03-06T06:13:59;13.10;;;8.35;;
23543;SDS011;11950;51.230;4.012;2024-03-06T06:16:25;10.35;;;9.18;;
23543;SDS011;11950;51.230;4.012;2024-03-06T06:18:52;12.05;;;8.93;;
23543;SDS011;11950;51.230;4.012;2024-03-06T06:21:18;13.52;;;9.07;;
23543;SDS011;11950;51.230;4.012;2024-03-06T06:23:44;11.52;;;9.02;;
23543;SDS011;11950;51.230;4.012;2024-03-06T06:26:11;11.80;;;8.73;;
23543;SDS011;11950;51.230;4.012;2024-03-06T06:28:40;10.95;;;8.90;;
23543;SDS011;11950;51.230;4.012;2024-03-06T06:31:07;15.35;;;9.77;;
23543;SDS011;11950;51.230;4.012;2024-03-06T06:33:33;13.85;;;9.23;;
23543;SDS011;11950;51.230;4.012;2024-03-06T06:36:00;12.93;;;9.73;;
23543;SDS011;11950;51.230;4.012;2024-03-06T06:38:26;9.73;;;7.85;;
23543;SDS011;11950;51.230;4.012;2024-03-06T06:40:52;10.20;;;8.40;;
23543;SDS011;11950;51.230;4.012;2024-03-06T06:43:18;13.93;;;9.10;;
23543;SDS011;11950;51.230;4.012;2024-03-06T06:45:45;15.07;;;9.05;;
23543;SDS011;11950;51.230;4.012;2024-03-06T06:48:11;16.88;;;10.88;;
23543;SDS011;11950;51.230;4.012;2024-03-06T06:50:37;14.35;;;10.63;;
23543;SDS011;11950;51.230;4.012;2024-03-06T06:53:04;14.88;;;11.38;;
23543;SDS011;11950;51.230;4.012;2024-03-06T06:55:30;18.60;;;12.45;;
23543;SDS011;11950;51.230;4.012;2024-03-06T06:57:57;17.33;;;12.10;;
23543;SDS011;11950;51.230;4.012;2024-03-06T07:00:23;15.60;;;11.77;;
23543;SDS011;11950;51.230;4.012;2024-03-06T07:02:50;17.60;;;12.20;;
23543;SDS011;11950;51.230;4.012;2024-03-06T07:05:17;18.92;;;12.55;;
23543;SDS011;11950;51.230;4.012;2024-03-06T07:07:43;16.02;;;12.10;;
23543;SDS011;11950;51.230;4.012;2024-03-06T07:10:10;18.13;;;12.88;;
23543;SDS011;11950;51.230;4.012;2024-03-06T07:12:36;15.57;;;12.18;;
23543;SDS011;11950;51.230;4.012;2024-03-06T07:15:02;21.40;;;13.38;;
23543;SDS011;11950;51.230;4.012;2024-03-06T07:17:29;16.95;;;11.70;;
23543;SDS011;11950;51.230;4.012;2024-03-06T07:19:55;18.08;;;12.10;;
23543;SDS011;11950;51.230;4.012;2024-03-06T07:22:22;16.83;;;12.35;;
23543;SDS011;11950;51.230;4.012;2024-03-06T07:24:49;17.65;;;12.57;;
23543;SDS011;11950;51.230;4.012;2024-03-06T07:27:15;19.38;;;13.60;;
23543;SDS011;11950;51.230;4.012;2024-03-06T07:29:41;18.83;;;12.93;;
23543;SDS011;11950;51.230;4.012;2024-03-06T07:32:07;15.60;;;12.23;;
23543;SDS011;11950;51.230;4.012;2024-03-06T07:34:34;17.55;;;13.27;;
23543;SDS011;11950;51.230;4.012;2024-03-06T07:37:00;18.67;;;13.40;;
23543;SDS011;11950;51.230;4.012;2024-03-06T07:39:27;16.08;;;12.43;;
23543;SDS011;11950;51.230;4.012;2024-03-06T07:41:53;18.52;;;13.20;;
23543;SDS011;11950;51.230;4.012;2024-03-06T07:44:20;17.10;;;13.27;;
23543;SDS011;11950;51.230;4.012;2024-03-06T07:46:46;20.85;;;13.45;;
23543;SDS011;11950;51.230;4.012;2024-03-06T07:49:12;19.63;;;13.25;;
23543;SDS011;11950;51.230;4.012;2024-03-06T07:51:38;20.50;;;14.45;;
23543;SDS011;11950;51.230;4.012;2024-03-06T07:54:06;19.15;;;14.13;;
23543;SDS011;11950;51.230;4.012;2024-03-06T07:56:32;22.27;;;14.32;;
23543;SDS011;11950;51.230;4.012;2024-03-06T07:59:00;19.65;;;14.20;;
23543;SDS011;11950;51.230;4.012;2024-03-06T08:01:26;19.48;;;13.68;;
23543;SDS011;11950;51.230;4.012;2024-03-06T08:03:54;18.85;;;14.23;;
23543;SDS011;11950;51.230;4.012;2024-03-06T08:06:21;20.05;;;14.30;;
23543;SDS011;11950;51.230;4.012;2024-03-06T08:08:47;19.85;;;14.07;;
23543;SDS011;11950;51.230;4.012;2024-03-06T08:11:13;21.42;;;13.05;;
23543;SDS011;11950;51.230;4.012;2024-03-06T08:13:40;18.15;;;13.70;;
23543;SDS011;11950;51.230;4.012;2024-03-06T08:16:07;19.02;;;13.93;;
23543;SDS011;11950;51.230;4.012;2024-03-06T08:18:34;17.05;;;12.85;;
23543;SDS011;11950;51.230;4.012;2024-03-06T08:21:02;19.25;;;13.75;;
23543;SDS011;11950;51.230;4.012;2024-03-06T08:23:31;18.95;;;13.02;;
23543;SDS011;11950;51.230;4.012;2024-03-06T08:25:57;19.27;;;11.90;;
23543;SDS011;11950;51.230;4.012;2024-03-06T08:28:25;17.08;;;12.73;;
23543;SDS011;11950;51.230;4.012;2024-03-06T08:30:52;16.40;;;11.98;;
23543;SDS011;11950;51.230;4.012;2024-03-06T08:33:18;15.70;;;12.48;;
23543;SDS011;11950;51.230;4.012;2024-03-06T08:35:46;15.80;;;11.55;;
23543;SDS011;11950;51.230;4.012;2024-03-06T08:38:12;16.23;;;12.65;;
23543;SDS011;11950;51.230;4.012;2024-03-06T08:40:39;17.23;;;12.82;;
23543;SDS011;11950;51.230;4.012;2024-03-06T08:43:07;19.33;;;13.20;;
23543;SDS011;11950;51.230;4.012;2024-03-06T08:45:34;16.35;;;12.88;;
23543;SDS011;11950;51.230;4.012;2024-03-06T08:48:00;21.20;;;12.85;;
23543;SDS011;11950;51.230;4.012;2024-03-06T08:50:27;18.30;;;13.82;;
23543;SDS011;11950;51.230;4.012;2024-03-06T08:52:53;23.75;;;15.02;;
23543;SDS011;11950;51.230;4.012;2024-03-06T08:55:19;23.27;;;15.88;;
23543;SDS011;11950;51.230;4.012;2024-03-06T08:57:45;26.20;;;16.33;;
23543;SDS011;11950;51.230;4.012;2024-03-06T09:00:12;25.15;;;16.08;;
23543;SDS011;11950;51.230;4.012;2024-03-06T09:02:40;27.10;;;17.73;;
23543;SDS011;11950;51.230;4.012;2024-03-06T09:05:06;25.92;;;17.48;;
23543;SDS011;11950;51.230;4.012;2024-03-06T09:07:35;25.63;;;16.95;;
23543;SDS011;11950;51.230;4.012;2024-03-06T09:10:09;24.65;;;17.38;;
23543;SDS011;11950;51.230;4.012;2024-03-06T09:12:36;27.35;;;17.67;;
23543;SDS011;11950;51.230;4.012;2024-03-06T09:15:03;29.55;;;18.10;;
23543;SDS011;11950;51.230;4.012;2024-03-06T09:17:30;27.08;;;16.90;;
23543;SDS011;11950;51.230;4.012;2024-03-06T09:19:56;29.10;;;18.45;;
23543;SDS011;11950;51.230;4.012;2024-03-06T09:22:22;28.15;;;19.58;;
23543;SDS011;11950;51.230;4.012;2024-03-06T09:24:49;29.60;;;19.25;;
23543;SDS011;11950;51.230;4.012;2024-03-06T09:27:15;29.25;;;19.30;;
23543;SDS011;11950;51.230;4.012;2024-03-06T09:29:42;29.42;;;18.90;;
23543;SDS011;11950;51.230;4.012;2024-03-06T09:32:09;31.08;;;19.33;;
23543;SDS011;11950;51.230;4.012;2024-03-06T09:34:35;29.85;;;19.40;;
23543;SDS011;11950;51.230;4.012;2024-03-06T09:37:02;26.95;;;18.27;;
23543;SDS011;11950;51.230;4.012;2024-03-06T09:39:29;27.45;;;18.83;;
23543;SDS011;11950;51.230;4.012;2024-03-06T09:41:55;27.38;;;18.48;;
23543;SDS011;11950;51.230;4.012;2024-03-06T09:44:22;30.92;;;19.60;;
23543;SDS011;11950;51.230;4.012;2024-03-06T09:46:49;32.63;;;19.23;;
23543;SDS011;11950;51.230;4.012;2024-03-06T09:49:16;29.73;;;17.90;;
23543;SDS011;11950;51.230;4.012;2024-03-06T09:51:44;27.20;;;18.50;;
23543;SDS011;11950;51.230;4.012;2024-03-06T09:54:12;28.92;;;18.90;;
23543;SDS011;11950;51.230;4.012;2024-03-06T09:56:43;35.25;;;19.38;;
23543;SDS011;11950;51.230;4.012;2024-03-06T09:59:11;30.70;;;19.83;;
23543;SDS011;11950;51.230;4.012;2024-03-06T10:01:39;31.67;;;21.00;;
23543;SDS011;11950;51.230;4.012;2024-03-06T10:04:22;34.03;;;21.02;;
23543;SDS011;11950;51.230;4.012;2024-03-06T10:06:56;36.67;;;22.02;;
23543;SDS011;11950;51.230;4.012;2024-03-06T10:09:24;36.47;;;22.00;;
23543;SDS011;11950;51.230;4.012;2024-03-06T10:11:51;35.03;;;23.58;;
23543;SDS011;11950;51.230;4.012;2024-03-06T10:17:00;39.75;;;23.02;;
23543;SDS011;11950;51.230;4.012;2024-03-06T10:19:27;41.60;;;22.85;;
23543;SDS011;11950;51.230;4.012;2024-03-06T10:21:55;39.25;;;23.48;;
23543;SDS011;11950;51.230;4.012;2024-03-06T10:24:23;48.35;;;25.05;;
23543;SDS011;11950;51.230;4.012;2024-03-06T10:26:51;41.90;;;23.85;;
23543;SDS011;11950;51.230;4.012;2024-03-06T10:29:20;37.78;;;22.55;;
23543;SDS011;11950;51.230;4.012;2024-03-06T10:31:57;39.13;;;24.30;;
23543;SDS011;11950;51.230;4.012;2024-03-06T10:34:25;44.03;;;23.92;;
23543;SDS011;11950;51.230;4.012;2024-03-06T10:36:56;41.95;;;23.83;;
23543;SDS011;11950;51.230;4.012;2024-03-06T10:39:23;37.80;;;22.27;;
23543;SDS011;11950;51.230;4.012;2024-03-06T10:41:53;39.45;;;23.15;;
23543;SDS011;11950;51.230;4.012;2024-03-06T10:44:25;38.83;;;21.17;;
23543;SDS011;11950;51.230;4.012;2024-03-06T10:46:57;38.80;;;21.97;;
23543;SDS011;11950;51.230;4.012;2024-03-06T10:49:26;37.17;;;22.88;;
23543;SDS011;11950;51.230;4.012;2024-03-06T10:51:59;35.70;;;20.50;;
23543;SDS011;11950;51.230;4.012;2024-03-06T10:54:27;36.60;;;20.83;;
23543;SDS011;11950;51.230;4.012;2024-03-06T10:56:58;39.90;;;20.00;;
23543;SDS011;11950;51.230;4.012;2024-03-06T10:59:25;35.47;;;19.25;;
23543;SDS011;11950;51.230;4.012;2024-03-06T11:01:55;29.70;;;18.38;;
23543;SDS011;11950;51.230;4.012;2024-03-06T11:04:29;28.70;;;17.73;;
23543;SDS011;11950;51.230;4.012;2024-03-06T11:07:00;30.15;;;17.50;;
23543;SDS011;11950;51.230;4.012;2024-03-06T11:09:28;32.92;;;18.77;;
23543;SDS011;11950;51.230;4.012;2024-03-06T11:12:01;32.38;;;17.55;;
23543;SDS011;11950;51.230;4.012;2024-03-06T11:14:30;32.58;;;17.63;;
23543;SDS011;11950;51.230;4.012;2024-03-06T11:17:01;31.50;;;17.75;;
23543;SDS011;11950;51.230;4.012;2024-03-06T11:28:12;30.25;;;16.90;;
23543;SDS011;11950;51.230;4.012;2024-03-06T11:30:51;31.40;;;17.70;;
23543;SDS011;11950;51.230;4.012;2024-03-06T11:38:51;30.60;;;16.30;;
23543;SDS011;11950;51.230;4.012;2024-03-06T11:41:22;27.43;;;15.83;;
23543;SDS011;11950;51.230;4.012;2024-03-06T11:43:49;29.60;;;17.30;;
23543;SDS011;11950;51.230;4.012;2024-03-06T11:46:21;29.02;;;15.88;;
23543;SDS011;11950;51.230;4.012;2024-03-06T11:48:55;26.73;;;15.43;;
23543;SDS011;11950;51.230;4.012;2024-03-06T11:51:22;29.08;;;15.73;;
23543;SDS011;11950;51.230;4.012;2024-03-06T11:53:49;32.22;;;16.05;;
23543;SDS011;11950;51.230;4.012;2024-03-06T11:56:17;26.73;;;15.93;;
23543;SDS011;11950;51.230;4.012;2024-03-06T11:58:46;27.35;;;16.85;;
23543;SDS011;11950;51.230;4.012;2024-03-06T12:01:13;27.67;;;17.25;;
23543;SDS011;11950;51.230;4.012;2024-03-06T12:03:41;29.10;;;16.08;;
23543;SDS011;11950;51.230;4.012;2024-03-06T12:06:07;32.35;;;19.02;;
23543;SDS011;11950;51.230;4.012;2024-03-06T12:08:34;27.90;;;16.73;;
23543;SDS011;11950;51.230;4.012;2024-03-06T12:11:04;29.17;;;17.42;;
23543;SDS011;11950;51.230;4.012;2024-03-06T12:13:31;27.98;;;16.42;;
23543;SDS011;11950;51.230;4.012;2024-03-06T12:15:58;35.47;;;19.63;;
23543;SDS011;11950;51.230;4.012;2024-03-06T12:18:24;29.13;;;18.05;;
23543;SDS011;11950;51.230;4.012;2024-03-06T12:20:50;29.33;;;17.83;;
23543;SDS011;11950;51.230;4.012;2024-03-06T12:23:20;28.27;;;16.92;;
23543;SDS011;11950;51.230;4.012;2024-03-06T12:25:48;27.45;;;15.50;;
23543;SDS011;11950;51.230;4.012;2024-03-06T12:28:15;27.30;;;15.88;;
23543;SDS011;11950;51.230;4.012;2024-03-06T12:30:42;24.83;;;14.57;;
23543;SDS011;11950;51.230;4.012;2024-03-06T12:33:10;25.30;;;15.20;;
23543;SDS011;11950;51.230;4.012;2024-03-06T12:35:40;26.83;;;15.57;;
23543;SDS011;11950;51.230;4.012;2024-03-06T12:38:13;23.15;;;14.75;;
23543;SDS011;11950;51.230;4.012;2024-03-06T12:40:41;24.40;;;13.43;;
23543;SDS011;11950;51.230;4.012;2024-03-06T12:43:07;23.15;;;12.13;;
23543;SDS011;11950;51.230;4.012;2024-03-06T12:45:35;21.98;;;12.77;;
23543;SDS011;11950;51.230;4.012;2024-03-06T12:48:02;20.05;;;12.98;;
23543;SDS011;11950;51.230;4.012;2024-03-06T12:50:31;22.05;;;12.10;;
23543;SDS011;11950;51.230;4.012;2024-03-06T12:52:57;20.10;;;11.32;;
23543;SDS011;11950;51.230;4.012;2024-03-06T12:55:24;14.25;;;8.35;;
23543;SDS011;11950;51.230;4.012;2024-03-06T12:57:51;14.80;;;8.55;;
23543;SDS011;11950;51.230;4.012;2024-03-06T13:00:17;17.00;;;9.73;;
23543;SDS011;11950;51.230;4.012;2024-03-06T13:02:44;13.57;;;8.60;;
23543;SDS011;11950;51.230;4.012;2024-03-06T13:05:11;13.20;;;8.40;;
23543;SDS011;11950;51.230;4.012;2024-03-06T13:07:38;12.73;;;8.02;;
23543;SDS011;11950;51.230;4.012;2024-03-06T13:10:07;15.32;;;8.45;;
23543;SDS011;11950;51.230;4.012;2024-03-06T13:12:36;12.88;;;8.25;;
23543;SDS011;11950;51.230;4.012;2024-03-06T13:15:05;14.07;;;7.28;;
23543;SDS011;11950;51.230;4.012;2024-03-06T13:17:33;9.90;;;6.60;;
23543;SDS011;11950;51.230;4.012;2024-03-06T13:20:00;8.52;;;6.00;;
23543;SDS011;11950;51.230;4.012;2024-03-06T13:22:26;8.68;;;5.32;;
23543;SDS011;11950;51.230;4.012;2024-03-06T13:24:53;9.38;;;5.88;;
23543;SDS011;11950;51.230;4.012;2024-03-06T13:27:19;8.60;;;5.00;;
23543;SDS011;11950;51.230;4.012;2024-03-06T13:29:45;7.40;;;4.80;;
23543;SDS011;11950;51.230;4.012;2024-03-06T13:32:11;5.90;;;3.90;;
23543;SDS011;11950;51.230;4.012;2024-03-06T13:34:38;4.88;;;3.67;;
23543;SDS011;11950;51.230;4.012;2024-03-06T13:37:04;6.28;;;3.83;;
23543;SDS011;11950;51.230;4.012;2024-03-06T13:39:32;3.55;;;2.50;;
23543;SDS011;11950;51.230;4.012;2024-03-06T13:41:59;4.53;;;2.80;;
23543;SDS011;11950;51.230;4.012;2024-03-06T13:44:25;4.80;;;3.15;;
23543;SDS011;11950;51.230;4.012;2024-03-06T13:46:51;3.13;;;1.83;;
23543;SDS011;11950;51.230;4.012;2024-03-06T13:52:04;3.10;;;2.42;;
23543;SDS011;11950;51.230;4.012;2024-03-06T13:54:31;4.35;;;2.78;;
23543;SDS011;11950;51.230;4.012;2024-03-06T13:56:57;4.60;;;2.85;;
23543;SDS011;11950;51.230;4.012;2024-03-06T13:59:28;4.05;;;2.55;;
23543;SDS011;11950;51.230;4.012;2024-03-06T14:01:58;3.95;;;2.70;;
23543;SDS011;11950;51.230;4.012;2024-03-06T14:04:28;5.40;;;3.08;;
23543;SDS011;11950;51.230;4.012;2024-03-06T14:06:55;3.05;;;2.65;;
23543;SDS011;11950;51.230;4.012;2024-03-06T14:09:23;3.40;;;2.55;;
23543;SDS011;11950;51.230;4.012;2024-03-06T14:11:51;3.28;;;2.50;;
23543;SDS011;11950;51.230;4.012;2024-03-06T14:14:18;3.05;;;2.40;;
23543;SDS011;11950;51.230;4.012;2024-03-06T14:16:45;2.50;;;2.30;;
23543;SDS011;11950;51.230;4.012;2024-03-06T14:19:12;3.80;;;2.40;;
23543;SDS011;11950;51.230;4.012;2024-03-06T14:21:39;4.85;;;2.70;;
23543;SDS011;11950;51.230;4.012;2024-03-06T14:24:05;3.72;;;2.75;;
23543;SDS011;11950;51.230;4.012;2024-03-06T14:26:35;2.80;;;2.05;;
23543;SDS011;11950;51.230;4.012;2024-03-06T14:29:01;3.45;;;1.90;;
23543;SDS011;11950;51.230;4.012;2024-03-06T14:31:28;4.85;;;2.85;;
23543;SDS011;11950;51.230;4.012;2024-03-06T14:33:55;4.65;;;2.55;;
23543;SDS011;11950;51.230;4.012;2024-03-06T14:36:21;4.05;;;2.70;;
23543;SDS011;11950;51.230;4.012;2024-03-06T14:38:50;4.63;;;2.78;;
23543;SDS011;11950;51.230;4.012;2024-03-06T14:41:18;4.40;;;2.90;;
23543;SDS011;11950;51.230;4.012;2024-03-06T14:43:45;5.00;;;3.22;;
23543;SDS011;11950;51.230;4.012;2024-03-06T14:46:12;4.13;;;2.95;;